Time;durP1;ratioP1;P1;durP2;ratioP2;P2;SDS_P1;SDS_P2;PMS_P1;PMS_P2;Temp;Humidity;BMP_temperature;BMP_pressure;BME280_temperature;BME280_humidity;BME280_pressure;Samples;Min_cycle;Max_cycle;Signal;HPM_P1;HPM_P2
2022/05/02 00:00:49;;;;;;;;;;;;;;;21.03;nan;95264.59;2056136;28;1616;-68
2022/05/02 00:01:51;;;;;;;;;;;;;;;21.01;nan;95266.66;2056703;28;1902;-69
2022/05/02 00:02:52;;;;;;;;;;;;;;;21.04;nan;95262.72;2046142;28;1525;-66
2022/05/02 00:03:54;;;;;;;;;;;;;;;21.06;nan;95258.81;2052415;28;1173;-70
2022/05/02 00:04:56;;;;;;;;;;;;;;;21.05;nan;95259.03;2056545;28;1669;-69
2022/05/02 00:05:58;;;;;;;;;;;;;;;21.04;nan;95260.88;2057323;28;1117;-68
2022/05/02 00:06:59;;;;;;;;;;;;;;;21.01;nan;95262.13;2056065;28;1324;-69
2022/05/02 00:08:01;;;;;;;;;;;;;;;21.04;nan;95260.88;2057058;28;979;-69
2022/05/02 00:09:03;;;;;;;;;;;;;;;21.03;nan;95264.59;2057113;28;1698;-69
2022/05/02 00:10:06;;;;;;;;;;;;;;;21.01;nan;95261.31;2056189;28;1614;-67
2022/05/02 00:11:07;;;;;;;;;;;;;;;20.98;nan;95257.19;2059413;28;1742;-66
2022/05/02 00:12:09;;;;;;;;;;;;;;;20.95;nan;95257.59;2064102;28;1533;-60
2022/05/02 00:13:11;;;;;;;;;;;;;;;20.95;nan;95264.81;2059562;28;1029;-60
2022/05/02 00:14:13;;;;;;;;;;;;;;;20.93;nan;95253.50;2045402;28;1277;-59
2022/05/02 00:15:14;;;;;;;;;;;;;;;20.93;nan;95256.16;2057337;28;1425;-61
2022/05/02 00:16:16;;;;;;;;;;;;;;;20.93;nan;95258.84;2056471;28;1667;-59
2022/05/02 00:17:18;;;;;;;;;;;;;;;20.92;nan;95251.88;2055966;28;1484;-60
2022/05/02 00:18:19;;;;;;;;;;;;;;;20.90;nan;95259.25;2057244;28;1610;-59
2022/05/02 00:19:21;;;;;;;;;;;;;;;20.89;nan;95253.09;2056453;28;1560;-58
2022/05/02 00:20:35;;;;;;;;;;;;;;;20.88;nan;95255.97;2061844;28;1671;-60
2022/05/02 00:21:37;;;;;;;;;;;;;;;20.92;nan;95257.22;2057216;28;1701;-60
2022/05/02 00:22:40;;;;;;;;;;;;;;;20.91;nan;95255.56;2057309;28;1986;-59
2022/05/02 00:23:41;;;;;;;;;;;;;;;20.91;nan;95258.22;2051663;28;1463;-61
2022/05/02 00:24:44;;;;;;;;;;;;;;;20.90;nan;95256.59;2052090;28;1656;-59
2022/05/02 00:25:46;;;;;;;;;;;;;;;20.90;nan;95251.25;2049321;28;1339;-59
2022/05/02 00:26:48;;;;;;;;;;;;;;;20.93;nan;95251.66;2056937;28;1386;-61
2022/05/02 00:27:50;;;;;;;;;;;;;;;20.89;nan;95249.63;2056752;28;1547;-60
2022/05/02 00:28:52;;;;;;;;;;;;;;;20.89;nan;95257.63;2064955;28;1009;-60
2022/05/02 00:29:53;;;;;;;;;;;;;;;20.89;nan;95254.97;2059571;28;1663;-60
2022/05/02 00:30:55;;;;;;;;;;;;;;;20.88;nan;95253.28;2058963;28;1640;-60
2022/05/02 00:31:57;;;;;;;;;;;;;;;20.88;nan;95250.63;2060541;28;1617;-59
2022/05/02 00:32:58;;;;;;;;;;;;;;;20.88;nan;95254.13;2055343;28;1642;-61
2022/05/02 00:34:00;;;;;;;;;;;;;;;20.88;nan;95250.63;2054385;28;1215;-61
2022/05/02 00:35:02;;;;;;;;;;;;;;;20.88;nan;95250.63;2055744;28;1712;-61
2022/05/02 00:36:04;;;;;;;;;;;;;;;20.87;nan;95243.66;2056468;28;1631;-60
2022/05/02 00:37:06;;;;;;;;;;;;;;;20.88;nan;95250.63;2052930;28;1598;-61
2022/05/02 00:38:07;;;;;;;;;;;;;;;20.88;nan;95251.44;2065141;28;1448;-58
2022/05/02 00:39:09;;;;;;;;;;;;;;;20.87;nan;95247.13;2057045;28;1448;-61
2022/05/02 00:40:12;;;;;;;;;;;;;;;20.86;nan;95250.00;2057281;28;1100;-60
2022/05/02 00:41:14;;;;;;;;;;;;;;;20.85;nan;95251.84;2059060;28;1543;-62
2022/05/02 00:42:15;;;;;;;;;;;;;;;20.87;nan;95251.66;2062403;28;1938;-60
2022/05/02 00:43:17;;;;;;;;;;;;;;;20.87;nan;95249.81;2056203;28;1034;-59
2022/05/02 00:44:19;;;;;;;;;;;;;;;20.88;nan;95245.28;2057482;28;1080;-64
2022/05/02 00:45:21;;;;;;;;;;;;;;;20.88;nan;95250.63;2055056;28;1530;-60
2022/05/02 00:46:23;;;;;;;;;;;;;;;20.88;nan;95253.28;2055456;28;1720;-66
2022/05/02 00:47:25;;;;;;;;;;;;;;;20.88;nan;95251.44;2056661;28;1443;-64
2022/05/02 00:48:29;;;;;;;;;;;;;;;20.88;nan;95250.63;2050529;28;1633;-64
2022/05/02 00:49:30;;;;;;;;;;;;;;;20.88;nan;95254.13;2056349;28;1543;-63
2022/05/02 00:50:33;;;;;;;;;;;;;;;20.88;nan;95246.09;2064024;28;1033;-63
2022/05/02 00:51:35;;;;;;;;;;;;;;;20.87;nan;95247.13;2064755;28;1497;-63
2022/05/02 00:52:36;;;;;;;;;;;;;;;20.87;nan;95246.31;2065315;28;1160;-63
2022/05/02 00:53:39;;;;;;;;;;;;;;;20.87;nan;95249.00;2063091;28;1974;-63
2022/05/02 00:54:41;;;;;;;;;;;;;;;20.87;nan;95249.00;2062351;28;1094;-63
2022/05/02 00:55:44;;;;;;;;;;;;;;;20.87;nan;95246.31;2056725;28;1536;-64
2022/05/02 00:56:47;;;;;;;;;;;;;;;20.87;nan;95240.97;2056041;28;1575;-63
2022/05/02 00:57:48;;;;;;;;;;;;;;;20.87;nan;95239.13;2057189;28;794;-62
2022/05/02 00:58:50;;;;;;;;;;;;;;;20.88;nan;95239.94;2055755;28;1495;-63
2022/05/02 00:59:52;;;;;;;;;;;;;;;20.87;nan;95236.44;2054181;28;1706;-63
2022/05/02 01:00:53;;;;;;;;;;;;;;;20.86;nan;95240.16;2056277;28;1509;-63
2022/05/02 01:01:59;;;;;;;;;;;;;;;20.84;nan;95236.88;2049576;29;1142;-63
2022/05/02 01:03:02;;;;;;;;;;;;;;;20.87;nan;95243.66;2053564;28;1980;-60
2022/05/02 01:04:04;;;;;;;;;;;;;;;20.86;nan;95234.81;2056866;28;778;-60
2022/05/02 01:05:06;;;;;;;;;;;;;;;20.87;nan;95232.97;2054307;28;1205;-60
2022/05/02 01:07:28;;;;;;;;;;;;;;;20.86;nan;95225.97;2056683;28;1620;-60
2022/05/02 01:08:31;;;;;;;;;;;;;;;20.84;nan;95228.03;2065210;28;1045;-59
2022/05/02 01:09:33;;;;;;;;;;;;;;;20.85;nan;95227.00;2065375;28;1014;-60
2022/05/02 01:10:36;;;;;;;;;;;;;;;20.86;nan;95221.47;2060681;28;1010;-60
2022/05/02 01:11:37;;;;;;;;;;;;;;;20.87;nan;95227.63;2056158;28;1520;-60
2022/05/02 01:12:39;;;;;;;;;;;;;;;20.87;nan;95223.09;2063809;28;1726;-60
2022/05/02 01:13:44;;;;;;;;;;;;;;;20.86;nan;95213.47;2057024;28;1109;-65
2022/05/02 01:14:47;;;;;;;;;;;;;;;20.88;nan;95226.59;2054225;28;1722;-67
2022/05/02 01:15:49;;;;;;;;;;;;;;;20.87;nan;95223.09;2056169;28;1637;-68
2022/05/02 01:16:50;;;;;;;;;;;;;;;20.85;nan;95219.81;2056787;28;1091;-67
2022/05/02 01:17:52;;;;;;;;;;;;;;;20.86;nan;95215.28;2057400;28;1697;-68
2022/05/02 01:18:55;;;;;;;;;;;;;;;20.86;nan;95216.13;2058382;28;1405;-67
2022/05/02 01:19:57;;;;;;;;;;;;;;;20.87;nan;95219.63;2058620;28;1506;-67
2022/05/02 01:20:58;;;;;;;;;;;;;;;20.88;nan;95221.25;2056980;28;891;-68
2022/05/02 01:22:00;;;;;;;;;;;;;;;20.89;nan;95212.22;2057128;28;1566;-68
2022/05/02 01:23:02;;;;;;;;;;;;;;;20.89;nan;95210.38;2055441;28;1993;-68
2022/05/02 01:24:04;;;;;;;;;;;;;;;20.90;nan;95211.19;2057237;28;1114;-68
2022/05/02 01:25:06;;;;;;;;;;;;;;;20.89;nan;95217.56;2061355;28;1461;-67
2022/05/02 01:26:07;;;;;;;;;;;;;;;20.90;nan;95211.19;2072260;28;1025;-67
2022/05/02 01:27:10;;;;;;;;;;;;;;;20.90;nan;95216.53;2068591;28;905;-68
2022/05/02 01:28:11;;;;;;;;;;;;;;;20.89;nan;95207.69;2057100;28;1678;-71
2022/05/02 01:29:13;;;;;;;;;;;;;;;20.90;nan;95205.84;2072760;28;1109;-67
2022/05/02 01:30:14;;;;;;;;;;;;;;;20.93;nan;95206.25;2070035;28;1745;-67
2022/05/02 01:31:17;;;;;;;;;;;;;;;20.93;nan;95208.09;2049147;28;1604;-66
2022/05/02 01:32:18;;;;;;;;;;;;;;;20.93;nan;95208.09;2056355;28;1805;-68
2022/05/02 01:33:20;;;;;;;;;;;;;;;20.94;nan;95199.88;2050134;28;1476;-67
2022/05/02 01:34:22;;;;;;;;;;;;;;;20.95;nan;95198.03;2051222;28;1704;-67
2022/05/02 01:35:23;;;;;;;;;;;;;;;20.97;nan;95201.28;2054210;28;1514;-67
2022/05/02 01:36:25;;;;;;;;;;;;;;;20.95;nan;95198.03;2056416;28;1871;-66
2022/05/02 01:37:26;;;;;;;;;;;;;;;20.97;nan;95201.28;2058746;28;1567;-69
2022/05/02 01:38:28;;;;;;;;;;;;;;;20.97;nan;95195.94;2067496;28;1494;-68
2022/05/02 01:39:30;;;;;;;;;;;;;;;20.96;nan;95197.00;2058252;28;1621;-68
2022/05/02 01:40:31;;;;;;;;;;;;;;;20.95;nan;95196.19;2072620;28;975;-68
2022/05/02 01:41:33;;;;;;;;;;;;;;;20.95;nan;95198.03;2072321;28;1034;-68
2022/05/02 01:42:35;;;;;;;;;;;;;;;20.96;nan;95194.31;2073323;28;993;-68
2022/05/02 01:43:36;;;;;;;;;;;;;;;20.95;nan;95193.50;2066179;28;1906;-66
2022/05/02 01:44:39;;;;;;;;;;;;;;;20.93;nan;95190.22;2053457;28;1603;-67
2022/05/02 01:45:41;;;;;;;;;;;;;;;20.94;nan;95188.34;2053646;28;1428;-68
2022/05/02 01:46:43;;;;;;;;;;;;;;;20.96;nan;95180.97;2058501;28;1022;-68
2022/05/02 01:47:44;;;;;;;;;;;;;;;20.96;nan;95188.97;2058108;28;1081;-67
2022/05/02 01:48:46;;;;;;;;;;;;;;;20.95;nan;95182.81;2057735;28;1682;-68
2022/05/02 01:49:48;;;;;;;;;;;;;;;20.95;nan;95182.81;2058188;28;1173;-67
2022/05/02 01:50:50;;;;;;;;;;;;;;;20.95;nan;95193.50;2057781;28;1278;-65
2022/05/02 01:51:51;;;;;;;;;;;;;;;20.95;nan;95188.16;2058260;28;990;-59
2022/05/02 01:52:55;;;;;;;;;;;;;;;20.96;nan;95188.97;2058582;28;1454;-62
2022/05/02 01:53:56;;;;;;;;;;;;;;;20.93;nan;95181.38;2058240;28;1040;-59
2022/05/02 01:54:58;;;;;;;;;;;;;;;20.93;nan;95178.72;2055629;28;1408;-62
2022/05/02 01:56:01;;;;;;;;;;;;;;;20.94;nan;95180.34;2061570;28;962;-59
2022/05/02 01:57:03;;;;;;;;;;;;;;;20.92;nan;95177.91;2055621;28;1495;-59
2022/05/02 01:58:05;;;;;;;;;;;;;;;20.91;nan;95176.22;2063499;28;1517;-59
2022/05/02 01:59:06;;;;;;;;;;;;;;;20.93;nan;95176.03;2062651;28;1606;-59
2022/05/02 02:00:08;;;;;;;;;;;;;;;20.94;nan;95180.34;2072880;28;1477;-60
2022/05/02 02:01:10;;;;;;;;;;;;;;;20.93;nan;95181.38;2073526;28;1184;-63
2022/05/02 02:02:11;;;;;;;;;;;;;;;20.93;nan;95176.03;2060511;28;1675;-60
2022/05/02 02:03:13;;;;;;;;;;;;;;;20.91;nan;95175.41;2056165;28;1910;-59
2022/05/02 02:05:50;;;;;;;;;;;;;;;20.91;nan;95181.56;2049020;28;1358;-61
2022/05/02 02:06:53;;;;;;;;;;;;;;;20.92;nan;95175.22;2050271;28;1240;-61
2022/05/02 02:07:54;;;;;;;;;;;;;;;20.92;nan;95179.75;2056614;28;1678;-60
2022/05/02 02:08:56;;;;;;;;;;;;;;;20.93;nan;95176.03;2065351;28;1380;-59
2022/05/02 02:09:57;;;;;;;;;;;;;;;20.91;nan;95170.06;2064064;28;1502;-59
2022/05/02 02:11:00;;;;;;;;;;;;;;;20.93;nan;95173.38;2058073;28;1688;-59
2022/05/02 02:12:02;;;;;;;;;;;;;;;20.92;nan;95177.91;2056847;28;1512;-60
2022/05/02 02:13:05;;;;;;;;;;;;;;;20.93;nan;95168.03;2056840;28;1144;-59
2022/05/02 02:14:06;;;;;;;;;;;;;;;20.93;nan;95163.50;2057413;28;1297;-59
2022/05/02 02:15:08;;;;;;;;;;;;;;;20.91;nan;95168.22;2054398;28;1593;-62
2022/05/02 02:16:10;;;;;;;;;;;;;;;20.90;nan;95163.09;2058172;28;1511;-62
2022/05/02 02:17:12;;;;;;;;;;;;;;;20.91;nan;95159.41;2060384;28;1615;-60
2022/05/02 02:18:14;;;;;;;;;;;;;;;20.91;nan;95164.72;2057701;28;1081;-60
2022/05/02 02:19:16;;;;;;;;;;;;;;;20.90;nan;95163.09;2048928;28;1329;-60
2022/05/02 02:20:17;;;;;;;;;;;;;;;20.90;nan;95165.78;2058257;28;1400;-60
2022/05/02 02:21:19;;;;;;;;;;;;;;;20.90;nan;95158.56;2058449;28;1100;-60
2022/05/02 02:22:21;;;;;;;;;;;;;;;20.89;nan;95162.28;2058066;28;985;-60
2022/05/02 02:23:23;;;;;;;;;;;;;;;20.90;nan;95158.56;2056839;28;1915;-60
2022/05/02 02:24:24;;;;;;;;;;;;;;;20.88;nan;95155.28;2065898;28;1006;-59
2022/05/02 02:25:26;;;;;;;;;;;;;;;20.89;nan;95153.47;2062455;28;1423;-60
2022/05/02 02:26:28;;;;;;;;;;;;;;;20.88;nan;95155.28;2057679;28;1640;-59
2022/05/02 02:27:30;;;;;;;;;;;;;;;20.89;nan;95154.28;2058346;28;1491;-59
2022/05/02 02:28:31;;;;;;;;;;;;;;;20.89;nan;95148.13;2066432;28;1025;-58
2022/05/02 02:29:33;;;;;;;;;;;;;;;20.90;nan;95155.09;2066414;28;820;-60
2022/05/02 02:30:35;;;;;;;;;;;;;;;20.89;nan;95150.78;2049434;28;1527;-60
2022/05/02 02:31:36;;;;;;;;;;;;;;;20.89;nan;95153.47;2057434;28;1023;-60
2022/05/02 02:32:38;;;;;;;;;;;;;;;20.88;nan;95138.44;2057950;28;999;-60
2022/05/02 02:33:40;;;;;;;;;;;;;;;20.88;nan;95141.13;2056114;28;1081;-60
2022/05/02 02:34:41;;;;;;;;;;;;;;;20.89;nan;95145.44;2054968;28;1381;-63
2022/05/02 02:35:43;;;;;;;;;;;;;;;20.89;nan;95132.91;2057899;28;1241;-59
2022/05/02 02:36:45;;;;;;;;;;;;;;;20.89;nan;95135.59;2065116;28;1467;-60
2022/05/02 02:37:47;;;;;;;;;;;;;;;20.90;nan;95142.56;2065144;28;1291;-60
2022/05/02 02:38:49;;;;;;;;;;;;;;;20.90;nan;95139.88;2058255;28;1011;-60
2022/05/02 02:39:51;;;;;;;;;;;;;;;20.90;nan;95139.88;2062542;28;1505;-61
2022/05/02 02:40:52;;;;;;;;;;;;;;;20.89;nan;95129.44;2066083;28;1069;-59
2022/05/02 02:41:54;;;;;;;;;;;;;;;20.88;nan;95127.75;2056663;28;1157;-59
2022/05/02 02:42:55;;;;;;;;;;;;;;;20.88;nan;95133.09;2063886;28;1226;-60
2022/05/02 02:43:57;;;;;;;;;;;;;;;20.87;nan;95132.28;2057781;28;1982;-59
2022/05/02 02:44:59;;;;;;;;;;;;;;;20.88;nan;95130.44;2054752;28;1614;-60
2022/05/02 02:46:00;;;;;;;;;;;;;;;20.88;nan;95128.56;2058275;28;1026;-60
2022/05/02 02:47:02;;;;;;;;;;;;;;;20.88;nan;95130.44;2056796;28;1400;-59
2022/05/02 02:48:04;;;;;;;;;;;;;;;20.89;nan;95127.56;2056880;28;979;-59
2022/05/02 02:49:06;;;;;;;;;;;;;;;20.91;nan;95124.66;2057641;28;1034;-64
2022/05/02 02:50:08;;;;;;;;;;;;;;;20.91;nan;95127.34;2061339;28;1461;-57
2022/05/02 02:51:09;;;;;;;;;;;;;;;20.92;nan;95132.50;2061258;28;1489;-56
2022/05/02 02:52:11;;;;;;;;;;;;;;;20.89;nan;95130.25;2057735;28;1356;-59
2022/05/02 02:53:12;;;;;;;;;;;;;;;20.89;nan;95134.78;2046859;28;1635;-58
2022/05/02 02:54:14;;;;;;;;;;;;;;;20.89;nan;95132.09;2057732;28;1277;-57
2022/05/02 02:55:16;;;;;;;;;;;;;;;20.89;nan;95129.44;2053913;28;1531;-58
2022/05/02 02:56:18;;;;;;;;;;;;;;;20.86;nan;95127.16;2060239;28;1512;-57
2022/05/02 02:57:19;;;;;;;;;;;;;;;20.86;nan;95130.66;2063191;28;1228;-57
2022/05/02 02:58:21;;;;;;;;;;;;;;;20.87;nan;95129.63;2057153;28;1154;-57
2022/05/02 02:59:22;;;;;;;;;;;;;;;20.89;nan;95132.09;2057098;28;1712;-56
2022/05/02 03:00:24;;;;;;;;;;;;;;;20.89;nan;95129.44;2049817;28;1176;-57
2022/05/02 03:01:26;;;;;;;;;;;;;;;20.90;nan;95125.72;2050027;28;1431;-57
2022/05/02 03:02:27;;;;;;;;;;;;;;;20.90;nan;95126.53;2057272;28;1157;-57
2022/05/02 03:03:29;;;;;;;;;;;;;;;20.90;nan;95123.03;2055488;28;1414;-57
2022/05/02 03:06:03;;;;;;;;;;;;;;;20.91;nan;95127.34;2054402;28;1605;-59
2022/05/02 03:07:05;;;;;;;;;;;;;;;20.88;nan;95123.25;2057456;28;1163;-63
2022/05/02 03:08:07;;;;;;;;;;;;;;;20.87;nan;95123.47;2057692;28;1520;-62
2022/05/02 03:09:09;;;;;;;;;;;;;;;20.87;nan;95123.47;2057189;28;1587;-59
2022/05/02 03:10:10;;;;;;;;;;;;;;;20.87;nan;95126.13;2051609;28;1491;-61
2022/05/02 03:11:12;;;;;;;;;;;;;;;20.87;nan;95126.13;2060238;28;1478;-60
2022/05/02 03:12:14;;;;;;;;;;;;;;;20.86;nan;95119.13;2065804;28;1096;-60
2022/05/02 03:13:16;;;;;;;;;;;;;;;20.85;nan;95123.66;2060669;28;1188;-61
2022/05/02 03:14:17;;;;;;;;;;;;;;;20.86;nan;95119.13;2060608;28;1665;-60
2022/05/02 03:15:19;;;;;;;;;;;;;;;20.87;nan;95120.78;2051862;28;1447;-59
2022/05/02 03:16:20;;;;;;;;;;;;;;;20.88;nan;95125.91;2060899;28;1167;-60
2022/05/02 03:17:22;;;;;;;;;;;;;;;20.88;nan;95112.56;2063281;28;1234;-59
2022/05/02 03:18:24;;;;;;;;;;;;;;;20.87;nan;95110.94;2057136;28;1290;-60
2022/05/02 03:19:26;;;;;;;;;;;;;;;20.87;nan;95115.44;2057875;28;981;-63
2022/05/02 03:20:27;;;;;;;;;;;;;;;20.88;nan;95122.41;2057651;28;1214;-59
2022/05/02 03:21:29;;;;;;;;;;;;;;;20.92;nan;95112.97;2058722;28;1798;-57
2022/05/02 03:22:31;;;;;;;;;;;;;;;20.90;nan;95123.03;2065620;28;1567;-56
2022/05/02 03:23:32;;;;;;;;;;;;;;;20.90;nan;95117.69;2057590;28;1574;-56
2022/05/02 03:24:34;;;;;;;;;;;;;;;20.89;nan;95124.09;2056155;28;1899;-57
2022/05/02 03:25:36;;;;;;;;;;;;;;;20.90;nan;95125.72;2056482;28;1443;-56
2022/05/02 03:26:37;;;;;;;;;;;;;;;20.90;nan;95125.72;2060840;28;1006;-58
2022/05/02 03:27:39;;;;;;;;;;;;;;;20.90;nan;95125.72;2059065;28;1536;-58
2022/05/02 03:28:40;;;;;;;;;;;;;;;20.88;nan;95125.09;2065685;28;1192;-57
2022/05/02 03:29:43;;;;;;;;;;;;;;;20.88;nan;95128.56;2065967;28;1082;-57
2022/05/02 03:30:44;;;;;;;;;;;;;;;20.91;nan;95127.34;2059525;28;1662;-56
2022/05/02 03:31:46;;;;;;;;;;;;;;;20.90;nan;95123.03;2057700;28;1700;-56
2022/05/02 03:32:48;;;;;;;;;;;;;;;20.90;nan;95128.38;2060137;28;1633;-58
2022/05/02 03:33:49;;;;;;;;;;;;;;;20.88;nan;95127.75;2054306;28;1481;-57
2022/05/02 03:34:51;;;;;;;;;;;;;;;20.87;nan;95126.94;2058545;28;1445;-57
2022/05/02 03:35:52;;;;;;;;;;;;;;;20.86;nan;95127.16;2057403;28;1716;-61
2022/05/02 03:36:54;;;;;;;;;;;;;;;20.89;nan;95129.44;2057415;28;1486;-56
2022/05/02 03:37:56;;;;;;;;;;;;;;;20.88;nan;95127.75;2053040;28;1244;-59
2022/05/02 03:38:57;;;;;;;;;;;;;;;20.86;nan;95128.00;2051858;28;1473;-55
2022/05/02 03:39:59;;;;;;;;;;;;;;;20.86;nan;95125.31;2058277;28;1648;-56
2022/05/02 03:41:00;;;;;;;;;;;;;;;20.87;nan;95126.13;2056995;28;1527;-55
2022/05/02 03:42:02;;;;;;;;;;;;;;;20.85;nan;95125.53;2057733;28;1023;-57
2022/05/02 03:43:04;;;;;;;;;;;;;;;20.86;nan;95119.13;2055784;28;1300;-58
2022/05/02 03:44:05;;;;;;;;;;;;;;;20.86;nan;95130.66;2057815;28;1972;-56
2022/05/02 03:45:07;;;;;;;;;;;;;;;20.88;nan;95133.09;2054508;28;1287;-57
2022/05/02 03:46:09;;;;;;;;;;;;;;;20.87;nan;95126.13;2057750;28;1030;-56
2022/05/02 03:47:11;;;;;;;;;;;;;;;20.86;nan;95122.66;2056195;28;1528;-56
2022/05/02 03:48:12;;;;;;;;;;;;;;;20.86;nan;95127.16;2056489;28;1059;-60
2022/05/02 03:49:14;;;;;;;;;;;;;;;20.85;nan;95126.34;2053056;28;1596;-60
2022/05/02 03:50:16;;;;;;;;;;;;;;;20.86;nan;95129.81;2050638;28;1572;-59
2022/05/02 03:51:18;;;;;;;;;;;;;;;20.85;nan;95128.19;2057304;28;1591;-59
2022/05/02 03:52:19;;;;;;;;;;;;;;;20.86;nan;95129.81;2065428;28;1161;-59
2022/05/02 03:53:21;;;;;;;;;;;;;;;20.87;nan;95126.94;2059630;28;1120;-59
2022/05/02 03:54:23;;;;;;;;;;;;;;;20.87;nan;95126.94;2057358;28;1021;-58
2022/05/02 03:55:25;;;;;;;;;;;;;;;20.88;nan;95130.44;2054279;28;1205;-58
2022/05/02 03:56:26;;;;;;;;;;;;;;;20.86;nan;95127.16;2057317;28;1632;-57
2022/05/02 03:57:28;;;;;;;;;;;;;;;20.86;nan;95128.00;2057211;28;1132;-56
2022/05/02 03:58:30;;;;;;;;;;;;;;;20.87;nan;95124.28;2057505;28;999;-57
2022/05/02 03:59:31;;;;;;;;;;;;;;;20.87;nan;95126.94;2057262;28;1554;-57
2022/05/02 04:00:33;;;;;;;;;;;;;;;20.86;nan;95130.66;2055853;28;1716;-59
2022/05/02 04:01:39;;;;;;;;;;;;;;;20.87;nan;95128.81;2049765;28;1497;-56
2022/05/02 04:02:42;;;;;;;;;;;;;;;20.87;nan;95131.47;2057317;28;1019;-57
2022/05/02 04:03:44;;;;;;;;;;;;;;;20.88;nan;95133.91;2055593;28;1102;-58
2022/05/02 04:04:45;;;;;;;;;;;;;;;20.90;nan;95131.06;2063202;28;1977;-57
2022/05/02 04:05:47;;;;;;;;;;;;;;;20.89;nan;95138.25;2063393;28;1054;-58
2022/05/02 04:06:49;;;;;;;;;;;;;;;20.90;nan;95131.06;2057815;28;1168;-57
2022/05/02 04:07:50;;;;;;;;;;;;;;;20.89;nan;95134.78;2056542;28;1488;-63
2022/05/02 04:08:52;;;;;;;;;;;;;;;20.88;nan;95128.56;2049423;28;866;-60
2022/05/02 04:09:54;;;;;;;;;;;;;;;20.88;nan;95139.25;2057472;28;1543;-56
2022/05/02 04:10:55;;;;;;;;;;;;;;;20.89;nan;95126.75;2061855;28;1667;-56
2022/05/02 04:11:57;;;;;;;;;;;;;;;20.89;nan;95132.91;2063157;28;879;-58
2022/05/02 04:13:01;;;;;;;;;;;;;;;20.90;nan;95125.72;2056888;28;1735;-57
2022/05/02 04:14:03;;;;;;;;;;;;;;;20.90;nan;95129.19;2049247;29;1367;-58
2022/05/02 04:15:05;;;;;;;;;;;;;;;20.89;nan;95124.09;2054199;28;1530;-58
2022/05/02 04:16:07;;;;;;;;;;;;;;;20.89;nan;95130.25;2056533;28;1328;-57
2022/05/02 04:17:10;;;;;;;;;;;;;;;20.89;nan;95127.56;2062447;28;1524;-57
2022/05/02 04:18:11;;;;;;;;;;;;;;;20.89;nan;95130.25;2057106;28;1162;-57
2022/05/02 04:19:13;;;;;;;;;;;;;;;20.87;nan;95132.28;2057125;28;1359;-59
2022/05/02 04:20:15;;;;;;;;;;;;;;;20.87;nan;95134.16;2064680;28;1245;-59
2022/05/02 04:21:16;;;;;;;;;;;;;;;20.87;nan;95134.16;2063710;28;1460;-59
2022/05/02 04:22:18;;;;;;;;;;;;;;;20.88;nan;95135.78;2057273;28;1187;-61
2022/05/02 04:23:19;;;;;;;;;;;;;;;20.87;nan;95132.28;2051825;28;1078;-60
2022/05/02 04:24:21;;;;;;;;;;;;;;;20.87;nan;95142.97;2051586;28;1588;-58
2022/05/02 04:25:23;;;;;;;;;;;;;;;20.87;nan;95137.63;2054005;28;1906;-58
2022/05/02 04:26:24;;;;;;;;;;;;;;;20.87;nan;95136.81;2057411;28;1021;-59
2022/05/02 04:27:26;;;;;;;;;;;;;;;20.86;nan;95137.84;2072666;28;1074;-58
2022/05/02 04:28:28;;;;;;;;;;;;;;;19.94;nan;95150.22;2064111;28;1153;-57
2022/05/02 04:29:29;;;;;;;;;;;;;;;18.72;nan;95141.22;2053337;28;1785;-60
2022/05/02 04:30:31;;;;;;;;;;;;;;;18.29;nan;95141.34;2056929;28;1006;-56
2022/05/02 04:31:33;;;;;;;;;;;;;;;17.18;nan;95146.22;2057116;28;1030;-56
2022/05/02 04:32:34;;;;;;;;;;;;;;;16.38;nan;95142.50;2061493;28;1508;-54
2022/05/02 04:33:36;;;;;;;;;;;;;;;16.07;nan;95153.25;2057247;28;1011;-59
2022/05/02 04:34:38;;;;;;;;;;;;;;;16.20;nan;95145.50;2055431;28;1410;-60
2022/05/02 04:35:39;;;;;;;;;;;;;;;15.94;nan;95145.09;2050951;28;1502;-57
2022/05/02 04:36:41;;;;;;;;;;;;;;;15.81;nan;95148.34;2057362;28;1125;-57
2022/05/02 04:37:42;;;;;;;;;;;;;;;15.90;nan;95147.28;2056871;28;1626;-56
2022/05/02 04:38:44;;;;;;;;;;;;;;;15.76;nan;95145.38;2062462;28;1643;-56
2022/05/02 04:39:46;;;;;;;;;;;;;;;15.85;nan;95136.41;2056125;28;1484;-58
2022/05/02 04:40:47;;;;;;;;;;;;;;;15.89;nan;95139.50;2049458;28;1307;-57
2022/05/02 04:41:49;;;;;;;;;;;;;;;15.79;nan;95145.88;2065189;28;1559;-58
2022/05/02 04:42:50;;;;;;;;;;;;;;;15.62;nan;95139.88;2064625;28;1010;-58
2022/05/02 04:43:53;;;;;;;;;;;;;;;15.62;nan;95145.16;2056290;28;1493;-57
2022/05/02 04:44:55;;;;;;;;;;;;;;;15.67;nan;95149.09;2059047;28;1906;-59
2022/05/02 04:45:57;;;;;;;;;;;;;;;15.60;nan;95146.34;2051861;28;1174;-56
2022/05/02 04:46:58;;;;;;;;;;;;;;;15.42;nan;95144.81;2051775;28;1632;-56
2022/05/02 04:48:00;;;;;;;;;;;;;;;15.41;nan;95145.78;2060340;28;1006;-56
2022/05/02 04:49:02;;;;;;;;;;;;;;;15.21;nan;95149.06;2057286;28;1686;-56
2022/05/02 04:50:04;;;;;;;;;;;;;;;15.13;nan;95156.06;2058015;28;1632;-57
2022/05/02 04:51:06;;;;;;;;;;;;;;;15.27;nan;95146.53;2064765;28;1045;-55
2022/05/02 04:52:08;;;;;;;;;;;;;;;15.22;nan;95142.78;2071601;28;1837;-58
2022/05/02 04:53:09;;;;;;;;;;;;;;;15.30;nan;95146.19;2060344;28;1346;-56
2022/05/02 04:54:11;;;;;;;;;;;;;;;15.58;nan;95143.03;2055227;28;1733;-55
2022/05/02 04:55:13;;;;;;;;;;;;;;;15.39;nan;95139.88;2053981;28;1775;-55
2022/05/02 04:56:15;;;;;;;;;;;;;;;15.50;nan;95149.22;2054176;28;1758;-60
2022/05/02 04:57:16;;;;;;;;;;;;;;;15.55;nan;95140.75;2052576;28;1504;-57
2022/05/02 04:58:19;;;;;;;;;;;;;;;15.85;nan;95139.88;2061030;28;1488;-56
2022/05/02 04:59:20;;;;;;;;;;;;;;;15.99;nan;95140.91;2072740;28;795;-58
2022/05/02 05:00:22;;;;;;;;;;;;;;;16.04;nan;95138.53;2056444;28;1490;-56
2022/05/02 05:01:24;;;;;;;;;;;;;;;16.09;nan;95141.47;2055821;28;1788;-54
2022/05/02 05:02:26;;;;;;;;;;;;;;;16.15;nan;95145.22;2060836;28;1494;-55
2022/05/02 05:03:28;;;;;;;;;;;;;;;16.29;nan;95149.72;2060060;28;1501;-54
2022/05/02 05:04:29;;;;;;;;;;;;;;;16.40;nan;95137.03;2064637;28;1138;-57
2022/05/02 05:05:31;;;;;;;;;;;;;;;16.41;nan;95136.00;2055382;28;1975;-59
2022/05/02 05:06:33;;;;;;;;;;;;;;;16.33;nan;95141.41;2059532;28;1506;-57
2022/05/02 05:07:38;;;;;;;;;;;;;;;16.30;nan;95142.59;2072522;28;1590;-56
2022/05/02 05:08:40;;;;;;;;;;;;;;;16.67;nan;95140.84;2066113;28;1291;-58
2022/05/02 05:09:42;;;;;;;;;;;;;;;16.83;nan;95142.53;2059527;28;1466;-51
2022/05/02 05:10:49;;;;;;;;;;;;;;;16.82;nan;95140.91;2065740;28;1084;-53
2022/05/02 05:12:06;;;;;;;;;;;;;;;16.67;nan;95139.06;2057436;28;1357;-56
2022/05/02 05:13:08;;;;;;;;;;;;;;;17.34;nan;95139.88;2059581;28;1448;-56
2022/05/02 05:17:14;;;;;;;;;;;;;;;17.84;nan;95132.78;2059258;28;1399;-57
2022/05/02 05:18:15;;;;;;;;;;;;;;;17.86;nan;95133.44;2057641;28;1410;-56
2022/05/02 05:19:37;;;;;;;;;;;;;;;17.87;nan;95127.13;2057699;28;1199;-57
2022/05/02 05:20:44;;;;;;;;;;;;;;;17.85;nan;95126.50;2055285;28;1847;-58
2022/05/02 05:21:58;;;;;;;;;;;;;;;17.87;nan;95122.63;2057095;28;1737;-56
2022/05/02 05:23:00;;;;;;;;;;;;;;;17.86;nan;95126.28;2056603;28;1384;-57
2022/05/02 05:24:01;;;;;;;;;;;;;;;17.88;nan;95120.78;2058145;28;1234;-55
2022/05/02 05:25:12;;;;;;;;;;;;;;;17.90;nan;95118.75;2051069;28;1938;-55
2022/05/02 05:26:26;;;;;;;;;;;;;;;17.94;nan;95109.38;2050641;28;1026;-57
2022/05/02 05:27:27;;;;;;;;;;;;;;;17.86;nan;95120.16;2050712;28;1111;-56
2022/05/02 05:28:49;;;;;;;;;;;;;;;17.88;nan;95112.81;2066939;28;1499;-55
2022/05/02 05:29:56;;;;;;;;;;;;;;;17.98;nan;95115.13;2073257;28;1287;-57
2022/05/02 05:31:10;;;;;;;;;;;;;;;18.06;nan;95115.81;2071444;28;1161;-54
2022/05/02 05:32:27;;;;;;;;;;;;;;;18.09;nan;95117.25;2052132;28;1670;-56
2022/05/02 05:33:34;;;;;;;;;;;;;;;18.04;nan;95120.50;2059284;28;1378;-56
2022/05/02 05:34:56;;;;;;;;;;;;;;;17.99;nan;95122.91;2061051;28;1678;-58
2022/05/02 05:36:02;;;;;;;;;;;;;;;18.09;nan;95118.06;2056445;28;1651;-56
2022/05/02 05:37:10;;;;;;;;;;;;;;;18.16;nan;95123.47;2064585;28;1492;-55
2022/05/02 05:38:23;;;;;;;;;;;;;;;18.21;nan;95121.03;2063565;28;1345;-57
2022/05/02 05:39:24;;;;;;;;;;;;;;;18.28;nan;95118.44;2066016;28;1176;-57
2022/05/02 05:40:30;;;;;;;;;;;;;;;18.30;nan;95127.03;2066450;28;1004;-56
2022/05/02 05:41:38;;;;;;;;;;;;;;;18.35;nan;95121.94;2066613;28;1097;-56
2022/05/02 05:42:50;;;;;;;;;;;;;;;18.39;nan;95117.88;2055290;28;1544;-55
2022/05/02 05:43:59;;;;;;;;;;;;;;;18.43;nan;95126.28;2057612;28;1431;-57
2022/05/02 05:45:03;;;;;;;;;;;;;;;18.44;nan;95114.63;2059178;28;1133;-58
2022/05/02 05:46:29;;;;;;;;;;;;;;;18.44;nan;95115.47;2058228;28;1961;-56
2022/05/02 05:47:47;;;;;;;;;;;;;;;18.48;nan;95122.03;2063136;28;1465;-57